Time;durP1;ratioP1;P1;durP2;ratioP2;P2;SDS_P1;SDS_P2;PMS_P1;PMS_P2;Temp;Humidity;BMP_temperature;BMP_pressure;BME280_temperature;BME280_humidity;BME280_pressure;Samples;Min_cycle;Max_cycle;Signal;HPM_P1;HPM_P2
2023/04/20 00:01:40;;;;;;;2.78;1.83;;;;;;;21.03;34.64;102524.50;5109601;27;20047;-68
2023/04/20 00:04:06;;;;;;;2.35;1.85;;;;;;;21.16;34.65;102524.13;5103152;27;20126;-68
2023/04/20 00:06:33;;;;;;;1.70;1.60;;;;;;;21.13;34.54;102521.78;5103290;27;20103;-69
2023/04/20 00:08:59;;;;;;;2.72;1.65;;;;;;;21.12;34.46;102518.28;5105204;27;20486;-68
2023/04/20 00:11:29;;;;;;;2.05;1.70;;;;;;;21.08;34.77;102516.94;5106524;27;20032;-68
2023/04/20 00:13:55;;;;;;;4.40;2.55;;;;;;;21.02;34.75;102512.22;5107911;27;20047;-68
2023/04/20 00:16:20;;;;;;;2.65;1.90;;;;;;;21.14;34.44;102507.53;5106440;28;20047;-68
2023/04/20 00:18:46;;;;;;;1.85;1.60;;;;;;;21.02;34.60;102500.81;5106464;27;20055;-68
2023/04/20 00:21:12;;;;;;;2.22;1.77;;;;;;;21.09;34.44;102501.88;5104207;28;20117;-69
2023/04/20 00:23:37;;;;;;;1.63;1.50;;;;;;;21.05;34.56;102500.50;5107473;27;20055;-69
2023/04/20 00:26:03;;;;;;;2.78;1.83;;;;;;;21.04;34.71;102496.19;5105661;28;20039;-68
2023/04/20 00:28:28;;;;;;;1.63;1.52;;;;;;;21.09;34.24;102491.28;5106221;27;20075;-68
2023/04/20 00:30:54;;;;;;;2.25;1.70;;;;;;;21.04;34.62;102482.94;5088606;28;20031;-69
2023/04/20 00:33:20;;;;;;;1.75;1.65;;;;;;;21.05;34.66;102493.38;5102186;28;20069;-68
2023/04/20 00:35:45;;;;;;;3.00;1.70;;;;;;;20.99;34.57;102483.38;5107068;27;20043;-68
2023/04/20 00:38:10;;;;;;;1.55;1.45;;;;;;;21.05;34.51;102480.16;5091948;28;20024;-69
2023/04/20 00:40:36;;;;;;;1.60;1.50;;;;;;;21.02;34.67;102485.75;5106185;28;20044;-68
2023/04/20 00:43:10;;;;;;;1.80;1.60;;;;;;;20.99;34.64;102469.28;5090929;27;20144;-68
2023/04/20 00:45:36;;;;;;;1.63;1.52;;;;;;;21.06;34.51;102478.34;5087788;28;20035;-69
2023/04/20 00:48:02;;;;;;;1.58;1.45;;;;;;;21.06;34.63;102470.38;5085963;28;20068;-69
2023/04/20 00:50:28;;;;;;;2.85;1.63;;;;;;;21.00;34.69;102463.84;5089950;28;20066;-68
2023/04/20 00:52:53;;;;;;;2.28;1.70;;;;;;;21.06;34.44;102460.63;5104782;28;20043;-69
2023/04/20 00:55:20;;;;;;;1.48;1.38;;;;;;;20.99;34.55;102462.19;5087535;28;20044;-69
2023/04/20 00:57:45;;;;;;;1.60;1.50;;;;;;;20.99;34.72;102464.81;5105217;27;20039;-68
2023/04/20 01:00:11;;;;;;;1.85;1.40;;;;;;;20.93;34.68;102454.84;5100517;28;20051;-69
2023/04/20 01:02:37;;;;;;;1.67;1.58;;;;;;;20.94;34.60;102455.66;5091229;28;20040;-68
2023/04/20 01:05:02;;;;;;;1.90;1.55;;;;;;;20.90;34.96;102454.31;5105039;27;20058;-68
2023/04/20 01:07:28;;;;;;;3.15;1.67;;;;;;;20.93;34.67;102449.53;5105054;28;20048;-68
2023/04/20 01:09:55;;;;;;;2.08;1.58;;;;;;;20.98;34.67;102439.31;5090645;28;20031;-68
2023/04/20 01:12:20;;;;;;;1.42;1.23;;;;;;;20.90;34.86;102441.91;5106239;28;20084;-69
2023/04/20 01:14:46;;;;;;;1.95;1.40;;;;;;;21.00;34.59;102437.34;5104202;27;20028;-69
2023/04/20 01:17:13;;;;;;;2.38;1.10;;;;;;;20.95;34.54;102425.56;5104744;27;20416;-69
2023/04/20 01:19:44;;;;;;;2.13;1.63;;;;;;;20.92;34.52;102424.03;5107244;27;20032;-68
2023/04/20 01:22:18;;;;;;;2.95;2.00;;;;;;;20.95;34.52;102414.97;5107944;27;20032;-69
2023/04/20 01:24:44;;;;;;;2.28;1.50;;;;;;;20.95;34.75;102410.50;5100202;27;20035;-68
2023/04/20 01:27:10;;;;;;;1.80;1.70;;;;;;;20.90;34.59;102404.81;5101188;28;20038;-69
2023/04/20 01:29:36;;;;;;;2.08;1.50;;;;;;;20.92;34.58;102399.38;5101694;28;20040;-69
2023/04/20 01:32:02;;;;;;;2.38;1.65;;;;;;;20.91;34.69;102395.91;5091824;27;20063;-69
2023/04/20 01:34:31;;;;;;;2.53;2.13;;;;;;;20.84;34.89;102389.53;5101661;27;20070;-69
2023/04/20 01:36:57;;;;;;;1.70;1.60;;;;;;;20.80;35.05;102383.69;5101783;28;20042;-69
2023/04/20 01:39:23;;;;;;;1.58;1.48;;;;;;;20.84;34.73;102378.94;5067013;28;20151;-69
2023/04/20 01:41:48;;;;;;;1.67;1.52;;;;;;;20.88;34.61;102375.00;5104224;28;20455;-69
2023/04/20 01:44:14;;;;;;;1.50;1.33;;;;;;;20.82;34.72;102375.59;5103563;28;20047;-68
2023/04/20 01:46:40;;;;;;;1.75;1.40;;;;;;;20.87;34.65;102365.41;5101022;28;20069;-68
2023/04/20 01:49:07;;;;;;;1.25;1.15;;;;;;;20.84;34.67;102354.28;5084185;28;20031;-68
2023/04/20 01:51:33;;;;;;;1.85;1.65;;;;;;;20.77;34.84;102360.16;5092233;28;20032;-68
2023/04/20 01:53:59;;;;;;;1.75;1.30;;;;;;;20.85;34.80;102364.72;5102652;28;20500;-68
2023/04/20 01:56:26;;;;;;;1.77;1.23;;;;;;;20.80;34.98;102359.84;5106902;28;20063;-69
2023/04/20 01:58:52;;;;;;;2.25;1.50;;;;;;;20.81;35.06;102352.75;5087356;28;20055;-68
2023/04/20 02:01:18;;;;;;;1.45;1.33;;;;;;;20.84;34.65;102344.53;5106534;28;20553;-68
2023/04/20 02:03:44;;;;;;;1.80;1.50;;;;;;;20.84;34.82;102335.75;5101263;28;20070;-68
2023/04/20 02:06:09;;;;;;;1.75;1.15;;;;;;;20.83;34.82;102331.44;5107002;28;20048;-68
2023/04/20 02:08:35;;;;;;;1.48;1.38;;;;;;;20.80;34.74;102330.72;5100259;28;20040;-68
2023/04/20 02:11:00;;;;;;;2.53;1.55;;;;;;;20.85;34.92;102330.31;5091332;28;20051;-68
2023/04/20 02:13:26;;;;;;;1.73;1.50;;;;;;;20.69;34.95;102320.38;5097145;28;20039;-68
2023/04/20 02:15:52;;;;;;;1.60;1.25;;;;;;;20.84;34.70;102333.09;5091223;28;20036;-68
2023/04/20 02:18:18;;;;;;;1.98;1.60;;;;;;;20.79;34.99;102325.59;5104743;28;20044;-68
2023/04/20 02:20:44;;;;;;;1.55;1.40;;;;;;;20.77;34.89;102317.81;5088004;28;20042;-68
2023/04/20 02:23:11;;;;;;;1.50;1.38;;;;;;;20.76;34.99;102313.50;5102974;28;20044;-68
2023/04/20 02:25:37;;;;;;;1.60;1.42;;;;;;;20.77;34.95;102317.81;5103377;28;20039;-68
2023/04/20 02:28:03;;;;;;;2.33;1.38;;;;;;;20.78;34.76;102311.53;5090960;28;20059;-68
2023/04/20 02:30:28;;;;;;;2.25;1.65;;;;;;;20.75;34.84;102305.69;5101856;28;20050;-68
2023/04/20 02:32:54;;;;;;;1.20;1.10;;;;;;;20.76;34.90;102307.38;5103429;28;20036;-68
2023/04/20 02:35:20;;;;;;;1.02;1.02;;;;;;;20.67;34.92;102295.88;5108063;28;20035;-68
2023/04/20 02:37:45;;;;;;;1.98;1.40;;;;;;;20.80;34.80;102298.13;5096490;28;20027;-68
2023/04/20 02:40:12;;;;;;;2.13;1.45;;;;;;;20.70;34.88;102292.94;5107221;27;20062;-68
2023/04/20 02:42:38;;;;;;;1.48;1.10;;;;;;;20.71;35.06;102291.94;5096088;28;20043;-68
2023/04/20 02:45:07;;;;;;;2.38;1.40;;;;;;;20.70;34.91;102278.84;5102647;27;20075;-68
2023/04/20 02:47:32;;;;;;;2.00;1.30;;;;;;;20.71;35.00;102286.66;5099100;27;20064;-68
2023/04/20 02:49:58;;;;;;;2.05;1.52;;;;;;;20.78;34.88;102284.22;5098444;28;20501;-68
2023/04/20 02:52:24;;;;;;;1.83;1.48;;;;;;;20.76;34.84;102294.97;5104472;28;20646;-68
2023/04/20 02:54:50;;;;;;;2.20;1.42;;;;;;;20.81;34.65;102295.34;5102503;27;20897;-69
2023/04/20 02:57:16;;;;;;;3.08;1.20;;;;;;;20.72;34.85;102288.31;5094566;27;21373;-68
2023/04/20 02:59:42;;;;;;;1.70;1.25;;;;;;;20.76;34.77;102287.03;5112262;27;20038;-68
2023/04/20 03:02:16;;;;;;;2.13;1.92;;;;;;;20.74;34.90;102283.69;5090401;28;20040;-68
2023/04/20 03:04:42;;;;;;;1.35;1.25;;;;;;;20.76;34.88;102281.72;5108501;27;20050;-68
2023/04/20 03:07:16;;;;;;;1.85;1.60;;;;;;;20.72;34.95;102284.81;5094579;27;20036;-68
2023/04/20 03:09:42;;;;;;;1.98;1.25;;;;;;;20.79;34.71;102280.59;5095389;28;20038;-68
2023/04/20 03:12:11;;;;;;;1.83;1.52;;;;;;;20.68;34.90;102275.53;5108797;28;20689;-68
2023/04/20 03:14:59;;;;;;;1.75;1.33;;;;;;;20.65;35.04;102279.31;5092259;28;20035;-68
2023/04/20 03:17:39;;;;;;;1.88;1.15;;;;;;;20.67;34.90;102269.41;5108293;27;20051;-68
2023/04/20 03:20:05;;;;;;;2.80;1.80;;;;;;;20.61;34.99;102264.69;5097475;27;21799;-68
2023/04/20 03:22:31;;;;;;;1.45;1.35;;;;;;;20.58;34.73;102265.00;5091127;28;20048;-68
2023/04/20 03:24:59;;;;;;;2.08;1.55;;;;;;;20.70;34.83;102274.41;5071201;28;20067;-68
2023/04/20 03:27:47;;;;;;;2.22;1.73;;;;;;;20.64;34.92;102274.97;5107120;27;20097;-68
2023/04/20 03:30:14;;;;;;;1.70;1.40;;;;;;;20.57;34.99;102273.91;5110642;27;20059;-68
2023/04/20 03:32:41;;;;;;;1.83;1.38;;;;;;;20.54;35.04;102263.63;5079054;27;20038;-68
2023/04/20 03:35:07;;;;;;;2.25;1.60;;;;;;;20.56;35.15;102272.25;5100762;27;21260;-68
2023/04/20 03:37:36;;;;;;;1.50;1.40;;;;;;;20.65;34.73;102252.84;5105629;27;20098;-68
2023/04/20 03:40:08;;;;;;;1.52;1.10;;;;;;;20.65;34.71;102255.50;5088800;27;20031;-68
2023/04/20 03:42:33;;;;;;;2.40;1.58;;;;;;;20.60;34.79;102254.25;5104196;27;20047;-68
2023/04/20 03:44:59;;;;;;;1.67;1.20;;;;;;;20.53;35.00;102259.34;5099783;28;20051;-68
2023/04/20 03:47:25;;;;;;;1.75;1.55;;;;;;;20.56;35.04;102252.91;5097305;28;20721;-68
2023/04/20 03:49:50;;;;;;;2.88;1.73;;;;;;;20.52;34.98;102255.84;5099503;27;20039;-68
2023/04/20 03:52:16;;;;;;;1.88;1.13;;;;;;;20.62;34.66;102247.00;5106381;27;20046;-68
2023/04/20 03:54:41;;;;;;;1.38;1.27;;;;;;;20.47;34.91;102250.19;5109462;28;20040;-68
2023/04/20 03:57:09;;;;;;;1.67;1.40;;;;;;;20.55;34.93;102252.06;5104112;27;20074;-68
2023/04/20 03:59:34;;;;;;;1.52;1.40;;;;;;;20.55;34.83;102260.00;5108417;27;20043;-68
2023/04/20 04:02:04;;;;;;;2.03;1.70;;;;;;;20.55;34.71;102262.66;5105350;27;20043;-68
2023/04/20 04:04:30;;;;;;;2.15;1.52;;;;;;;20.56;34.87;102259.03;5091825;28;20028;-68
2023/04/20 04:06:57;;;;;;;2.03;1.15;;;;;;;20.53;34.93;102248.75;5093879;28;20076;-68
2023/04/20 04:09:25;;;;;;;1.27;1.17;;;;;;;20.54;34.83;102252.22;5118178;27;20035;-68
2023/04/20 04:11:51;;;;;;;1.48;1.38;;;;;;;20.58;34.70;102250.94;5105020;28;20028;-69
2023/04/20 04:14:17;;;;;;;1.73;1.40;;;;;;;20.51;34.75;102250.72;5092403;27;20059;-69
2023/04/20 04:16:42;;;;;;;3.67;1.50;;;;;;;20.49;34.97;102248.22;5101132;28;20120;-68
2023/04/20 04:19:09;;;;;;;2.13;1.40;;;;;;;20.49;34.77;102250.03;5083920;28;20130;-68
2023/04/20 04:21:35;;;;;;;2.42;1.73;;;;;;;20.48;34.84;102240.44;5104467;28;20059;-68
2023/04/20 04:24:03;;;;;;;2.03;1.60;;;;;;;20.52;34.70;102244.44;5087894;27;20602;-68
2023/04/20 04:26:57;;;;;;;3.42;1.40;;;;;;;20.54;34.65;102236.34;5106578;28;20830;-68
2023/04/20 04:29:26;;;;;;;1.48;1.23;;;;;;;20.47;34.82;102230.84;5125344;27;20162;-68
2023/04/20 04:31:54;;;;;;;1.58;1.48;;;;;;;20.41;34.84;102226.13;5088047;28;20085;-68
2023/04/20 04:34:22;;;;;;;2.20;1.58;;;;;;;20.45;34.92;102230.13;5086346;28;20035;-68
2023/04/20 04:36:50;;;;;;;1.65;1.17;;;;;;;20.48;34.81;102230.69;5096703;27;20036;-68
2023/04/20 04:39:21;;;;;;;1.38;1.27;;;;;;;20.49;34.77;102228.88;5087412;27;20067;-68
2023/04/20 04:41:56;;;;;;;1.58;1.45;;;;;;;20.40;34.75;102224.44;5097339;27;20104;-68
2023/04/20 04:44:36;;;;;;;1.58;1.48;;;;;;;20.43;34.87;102222.34;5101708;27;20055;-68
2023/04/20 04:47:04;;;;;;;3.05;1.70;;;;;;;20.43;34.80;102218.84;5091338;28;20035;-68
2023/04/20 04:49:31;;;;;;;2.13;1.60;;;;;;;20.48;34.62;102233.31;5090428;28;20031;-68
2023/04/20 04:51:56;;;;;;;1.40;1.30;;;;;;;20.49;34.66;102240.28;5107736;28;20269;-68
2023/04/20 04:54:21;;;;;;;2.50;1.50;;;;;;;20.48;34.75;102235.13;5106779;27;20051;-68
2023/04/20 04:56:47;;;;;;;2.40;1.52;;;;;;;20.44;34.97;102228.47;5105269;28;20057;-68
2023/04/20 04:59:12;;;;;;;1.70;1.60;;;;;;;20.45;34.72;102209.78;5101310;28;20039;-69
2023/04/20 05:01:38;;;;;;;1.65;1.40;;;;;;;20.36;34.38;102200.09;5105409;28;20484;-68
2023/04/20 05:04:04;;;;;;;1.88;1.75;;;;;;;20.46;34.68;102207.97;5105403;27;20048;-68
2023/04/20 05:06:30;;;;;;;1.63;1.42;;;;;;;20.37;34.96;102235.31;5108395;28;20415;-68
2023/04/20 05:08:55;;;;;;;1.40;1.30;;;;;;;20.43;34.68;102237.38;5105243;28;20069;-68
2023/04/20 05:11:21;;;;;;;2.50;1.60;;;;;;;20.40;34.94;102235.84;5103120;28;20048;-68
2023/04/20 05:13:47;;;;;;;2.58;1.58;;;;;;;20.41;34.78;102236.69;5102953;28;20096;-68
2023/04/20 05:16:13;;;;;;;1.48;1.27;;;;;;;20.37;34.89;102233.50;5107847;28;20869;-68
2023/04/20 05:18:38;;;;;;;2.65;1.67;;;;;;;20.42;34.94;102241.00;5104657;28;20043;-68
2023/04/20 05:21:04;;;;;;;1.38;1.25;;;;;;;20.38;34.87;102240.44;5107612;28;20055;-68
2023/04/20 05:23:29;;;;;;;1.60;1.50;;;;;;;20.39;34.71;102239.47;5101494;28;20094;-68
2023/04/20 05:25:55;;;;;;;3.00;1.75;;;;;;;20.47;34.79;102246.72;5105898;28;20140;-68
2023/04/20 05:28:20;;;;;;;1.77;1.63;;;;;;;20.41;34.73;102236.69;5102588;28;20039;-68
2023/04/20 05:30:46;;;;;;;2.30;1.70;;;;;;;20.37;35.00;102254.66;5087381;28;20027;-68
2023/04/20 05:33:11;;;;;;;2.28;1.48;;;;;;;20.27;35.08;102248.59;5101671;28;20031;-68
2023/04/20 05:35:39;;;;;;;2.05;1.60;;;;;;;20.32;34.97;102243.69;5105362;28;21777;-68
2023/04/20 05:38:05;;;;;;;3.10;1.40;;;;;;;20.37;34.90;102245.91;5103892;27;20092;-68
2023/04/20 05:40:33;;;;;;;1.77;1.35;;;;;;;20.31;35.06;102236.75;5105947;28;20551;-68
2023/04/20 05:42:58;;;;;;;1.42;1.33;;;;;;;20.35;34.92;102237.28;5109394;27;20394;-69
2023/04/20 05:45:24;;;;;;;2.05;1.70;;;;;;;20.31;34.96;102238.56;5109060;28;20063;-69
2023/04/20 05:47:54;;;;;;;2.88;1.80;;;;;;;20.31;34.93;102249.97;5101053;28;20050;-68
2023/04/20 05:50:20;;;;;;;2.65;1.42;;;;;;;20.32;34.97;102253.44;5106866;28;20076;-68
2023/04/20 05:52:45;;;;;;;1.85;1.75;;;;;;;20.33;34.85;102248.00;5103006;28;20035;-68
2023/04/20 05:55:11;;;;;;;2.55;1.70;;;;;;;20.35;34.97;102253.16;5104444;28;20047;-68
2023/04/20 05:57:41;;;;;;;1.95;1.60;;;;;;;20.32;34.91;102242.88;5104877;28;20103;-68
2023/04/20 06:00:16;;;;;;;1.98;1.40;;;;;;;20.28;34.82;102250.25;5106889;28;20075;-68
2023/04/20 06:02:42;;;;;;;2.22;1.67;;;;;;;20.19;35.10;102249.34;5104817;28;20050;-68
2023/04/20 06:05:09;;;;;;;2.80;2.00;;;;;;;20.34;34.89;102262.06;5111422;28;20424;-69
2023/04/20 06:07:36;;;;;;;2.20;1.75;;;;;;;20.29;34.72;102262.53;5108517;28;20039;-68
2023/04/20 06:10:03;;;;;;;2.15;1.73;;;;;;;20.33;34.98;102265.69;5108885;28;20043;-69
2023/04/20 06:12:31;;;;;;;1.70;1.55;;;;;;;20.16;35.27;102254.09;5109243;27;20062;-69
2023/04/20 06:14:57;;;;;;;2.00;1.40;;;;;;;20.32;34.97;102256.09;5111049;27;20039;-68
2023/04/20 06:17:23;;;;;;;1.55;1.45;;;;;;;20.33;34.77;102247.19;5110491;28;20040;-68
2023/04/20 06:19:49;;;;;;;1.88;1.38;;;;;;;20.33;34.89;102255.94;5114449;27;20046;-68
2023/04/20 06:22:15;;;;;;;1.50;1.40;;;;;;;20.14;35.13;102235.72;5117642;27;20440;-68
2023/04/20 06:24:41;;;;;;;2.13;1.60;;;;;;;20.21;35.10;102247.38;5114551;27;20046;-68
2023/04/20 06:27:10;;;;;;;1.75;1.65;;;;;;;20.16;35.17;102254.09;5107562;28;20048;-68
2023/04/20 06:29:36;;;;;;;1.48;1.27;;;;;;;20.25;35.03;102257.66;5105172;28;20040;-68
2023/04/20 06:32:02;;;;;;;2.83;1.83;;;;;;;20.37;34.81;102249.38;5106092;27;20042;-68
2023/04/20 06:34:27;;;;;;;1.73;1.60;;;;;;;20.61;34.55;102245.34;5117268;27;20039;-68
2023/04/20 06:36:53;;;;;;;1.55;1.45;;;;;;;21.10;33.52;102238.66;5111572;27;20035;-68
2023/04/20 06:39:18;;;;;;;3.47;1.80;;;;;;;21.45;32.94;102236.94;5101798;28;20207;-69
2023/04/20 06:41:44;;;;;;;1.88;1.33;;;;;;;21.61;32.70;102245.81;5105243;28;20039;-68
2023/04/20 06:44:12;;;;;;;2.20;1.55;;;;;;;21.74;32.94;102250.69;5090102;28;20089;-68
2023/04/20 06:46:37;;;;;;;1.52;1.42;;;;;;;21.77;32.49;102252.19;5110755;27;20039;-68
2023/04/20 06:49:03;;;;;;;1.80;1.50;;;;;;;21.76;32.59;102238.13;5110967;27;20050;-68
2023/04/20 06:51:30;;;;;;;1.65;1.33;;;;;;;21.69;32.75;102232.59;5106373;27;20043;-68
2023/04/20 06:53:56;;;;;;;1.42;1.33;;;;;;;21.71;32.91;102235.91;5108774;28;20347;-68
2023/04/20 06:56:21;;;;;;;2.22;1.67;;;;;;;21.69;32.74;102247.66;5107393;27;20059;-68
2023/04/20 06:58:47;;;;;;;2.63;1.63;;;;;;;21.41;32.97;102255.81;5104986;28;20039;-71
2023/04/20 07:01:12;;;;;;;1.90;1.48;;;;;;;21.47;33.09;102248.22;5108667;27;20039;-72
2023/04/20 07:03:38;;;;;;;2.67;1.70;;;;;;;21.42;33.49;102238.91;5104499;27;20047;-73
2023/04/20 07:06:06;;;;;;;1.70;1.10;;;;;;;21.36;33.65;102250.16;5106601;28;20043;-72
2023/04/20 07:08:32;;;;;;;4.97;1.50;;;;;;;21.22;33.59;102237.44;5109833;28;20039;-72
2023/04/20 07:10:58;;;;;;;1.63;1.45;;;;;;;21.13;33.97;102249.78;5107925;27;20031;-72
2023/04/20 07:13:23;;;;;;;1.50;1.40;;;;;;;21.04;33.95;102258.66;5091821;27;20039;-72
2023/04/20 07:15:49;;;;;;;1.40;1.30;;;;;;;20.96;34.19;102258.56;5109054;27;20043;-72
2023/04/20 07:18:15;;;;;;;1.58;1.40;;;;;;;20.86;34.50;102247.25;5109722;27;20101;-72
2023/04/20 07:20:40;;;;;;;1.60;1.30;;;;;;;20.85;34.41;102253.53;5109908;27;20036;-73
2023/04/20 07:23:06;;;;;;;2.00;1.60;;;;;;;20.72;34.56;102258.34;5113100;27;20035;-74
2023/04/20 07:25:31;;;;;;;1.77;1.58;;;;;;;20.73;34.68;102254.72;5108205;27;20040;-74
2023/04/20 07:27:57;;;;;;;2.35;1.80;;;;;;;20.71;34.51;102249.59;5115363;27;20520;-73
2023/04/20 07:30:23;;;;;;;2.50;1.60;;;;;;;20.65;34.72;102244.91;5111631;27;20120;-73
2023/04/20 07:32:48;;;;;;;2.47;1.80;;;;;;;20.57;35.03;102246.63;5114500;27;20226;-71
2023/04/20 07:35:14;;;;;;;2.42;1.50;;;;;;;20.57;35.04;102244.81;5106496;28;20032;-72
2023/04/20 07:37:40;;;;;;;1.75;1.45;;;;;;;20.63;34.97;102246.00;5111046;28;20551;-72
2023/04/20 07:40:06;;;;;;;2.10;1.50;;;;;;;20.58;35.08;102250.94;5102582;27;20039;-72
2023/04/20 07:42:33;;;;;;;4.05;1.58;;;;;;;20.57;35.09;102251.91;5110900;27;20040;-71
2023/04/20 07:44:59;;;;;;;2.38;1.60;;;;;;;20.57;34.96;102255.41;5082113;28;20063;-72
2023/04/20 07:47:24;;;;;;;1.88;1.60;;;;;;;20.61;34.77;102262.03;5108448;27;20031;-77
2023/04/20 07:49:50;;;;;;;2.85;1.75;;;;;;;20.54;35.00;102233.69;5107244;27;20136;-78
2023/04/20 07:52:17;;;;;;;2.22;1.80;;;;;;;20.53;35.15;102240.81;5096441;28;20031;-78
2023/04/20 07:54:45;;;;;;;1.50;1.40;;;;;;;20.57;35.08;102236.03;5113172;27;20246;-73
2023/04/20 07:57:11;;;;;;;1.73;1.60;;;;;;;20.58;35.13;102243.00;5108078;27;20077;-73
2023/04/20 07:59:38;;;;;;;2.50;1.73;;;;;;;20.49;35.08;102228.88;5105991;27;20040;-72
2023/04/20 08:02:03;;;;;;;2.28;1.90;;;;;;;20.57;35.30;102238.69;5105360;28;20081;-72
2023/04/20 08:04:29;;;;;;;1.90;1.60;;;;;;;20.60;35.07;102236.56;5111038;27;20046;-72
2023/04/20 08:06:54;;;;;;;3.42;2.30;;;;;;;20.60;34.94;102233.09;5105510;27;20020;-73
2023/04/20 08:09:20;;;;;;;2.22;1.55;;;;;;;20.53;35.15;102224.94;5105868;27;20108;-73
2023/04/20 08:11:46;;;;;;;2.10;1.80;;;;;;;20.67;35.06;102234.16;5103191;28;20093;-73
2023/04/20 08:14:13;;;;;;;2.88;1.70;;;;;;;20.64;35.04;102210.63;5103263;27;20093;-71
2023/04/20 08:16:38;;;;;;;3.55;2.00;;;;;;;20.80;34.83;102224.84;5110796;27;20085;-73
2023/04/20 08:19:08;;;;;;;4.70;2.15;;;;;;;20.66;35.19;102233.34;5100939;27;20055;-73
2023/04/20 08:21:38;;;;;;;3.33;1.98;;;;;;;20.67;35.20;102220.94;5109024;28;20485;-72
2023/04/20 08:24:05;;;;;;;2.30;1.90;;;;;;;20.65;34.94;102230.84;5109880;28;20696;-73
2023/04/20 08:26:31;;;;;;;2.15;1.48;;;;;;;20.70;34.92;102226.75;5123909;27;20039;-73
2023/04/20 08:28:57;;;;;;;1.77;1.40;;;;;;;20.58;35.20;102232.41;5115068;28;20028;-73
2023/04/20 08:31:22;;;;;;;3.92;1.80;;;;;;;20.62;35.13;102228.47;5112290;27;20528;-72
2023/04/20 08:33:48;;;;;;;2.75;2.00;;;;;;;20.70;35.00;102225.91;5115700;28;20051;-73
2023/04/20 08:36:14;;;;;;;3.53;2.20;;;;;;;20.74;35.07;102225.44;5104425;27;20035;-73
2023/04/20 08:38:39;;;;;;;1.77;1.65;;;;;;;20.67;34.81;102232.34;5110877;28;20390;-73
2023/04/20 08:41:05;;;;;;;2.47;1.80;;;;;;;20.61;35.04;102247.97;5110287;27;20122;-72
2023/04/20 08:43:31;;;;;;;2.40;1.70;;;;;;;20.68;34.86;102247.25;5102230;28;20055;-73
2023/04/20 08:45:58;;;;;;;2.83;1.80;;;;;;;20.59;35.02;102242.84;5112092;27;20580;-72
2023/04/20 08:48:25;;;;;;;2.67;1.90;;;;;;;20.62;35.09;102231.13;5106904;28;20044;-72
2023/04/20 08:50:52;;;;;;;2.33;1.90;;;;;;;20.60;35.07;102230.44;5113199;28;20063;-72
2023/04/20 08:53:17;;;;;;;1.98;1.77;;;;;;;20.58;35.21;102225.31;5096258;28;20035;-72
2023/04/20 08:55:43;;;;;;;4.20;1.90;;;;;;;20.63;34.92;102227.47;5104674;28;20486;-73
2023/04/20 08:58:08;;;;;;;3.35;1.60;;;;;;;20.58;35.28;102229.75;5100520;27;20043;-73
2023/04/20 09:00:34;;;;;;;2.30;1.70;;;;;;;20.50;35.29;102222.59;5114509;28;20040;-72
2023/04/20 09:03:00;;;;;;;2.97;1.77;;;;;;;20.54;35.27;102231.88;5106515;28;20040;-73
2023/04/20 09:05:28;;;;;;;3.15;2.30;;;;;;;20.60;35.13;102217.22;5116752;27;20032;-72
2023/04/20 09:07:56;;;;;;;2.58;1.77;;;;;;;20.52;35.18;102224.09;5111985;27;20884;-72
2023/04/20 09:10:25;;;;;;;3.28;2.00;;;;;;;20.62;34.98;102215.25;5107556;28;20096;-73
2023/04/20 09:12:51;;;;;;;3.60;1.95;;;;;;;20.55;35.15;102224.78;5118298;27;20038;-73
2023/04/20 09:15:27;;;;;;;4.45;1.70;;;;;;;20.55;35.18;102225.59;5108060;28;20039;-72
2023/04/20 09:17:53;;;;;;;4.40;2.05;;;;;;;20.50;35.26;102227.88;5108890;27;20109;-72
2023/04/20 09:20:33;;;;;;;2.67;1.77;;;;;;;20.48;35.43;102221.91;5111657;27;20039;-73
2023/04/20 09:23:18;;;;;;;2.65;2.05;;;;;;;20.53;35.23;102227.56;5112775;27;20118;-72
2023/04/20 09:25:51;;;;;;;1.75;1.65;;;;;;;20.57;35.31;102228.09;5103031;28;20040;-73
2023/04/20 09:28:17;;;;;;;2.90;1.88;;;;;;;20.57;35.28;102228.94;5092835;28;20039;-73
2023/04/20 09:30:45;;;;;;;3.53;1.90;;;;;;;20.57;35.10;102236.88;5101954;28;20044;-72
2023/04/20 09:33:13;;;;;;;2.72;1.70;;;;;;;20.56;35.19;102239.66;5113900;27;20032;-73
2023/04/20 09:35:42;;;;;;;3.08;2.00;;;;;;;20.55;35.41;102238.00;5103943;27;20032;-72
2023/04/20 09:38:08;;;;;;;4.30;2.08;;;;;;;20.52;35.20;102236.50;5102483;28;20054;-73
2023/04/20 09:40:34;;;;;;;3.60;2.22;;;;;;;20.52;35.36;102241.78;5103018;28;20093;-72
2023/04/20 09:43:16;;;;;;;3.17;1.80;;;;;;;20.51;35.36;102240.13;5109988;28;20047;-72
2023/04/20 09:45:42;;;;;;;2.03;1.50;;;;;;;20.48;35.34;102227.19;5104406;28;20062;-72
2023/04/20 09:48:09;;;;;;;2.22;1.60;;;;;;;20.46;35.42;102232.63;5102558;28;20043;-73
2023/04/20 09:50:36;;;;;;;2.83;1.90;;;;;;;20.48;35.41;102227.19;5119225;27;20039;-72
2023/04/20 09:53:03;;;;;;;1.75;1.42;;;;;;;20.51;35.21;102229.53;5116912;27;20125;-73
2023/04/20 09:55:30;;;;;;;3.13;1.95;;;;;;;20.49;35.13;102213.00;5105927;28;20047;-72
2023/04/20 09:57:57;;;;;;;2.55;1.95;;;;;;;20.53;35.33;102219.63;5114176;27;20039;-73
2023/04/20 10:00:23;;;;;;;3.65;2.05;;;;;;;20.59;35.33;102223.47;5103929;28;20054;-73
2023/04/20 10:02:50;;;;;;;2.88;1.67;;;;;;;20.56;35.40;102226.44;5103865;28;20513;-72
2023/04/20 10:05:16;;;;;;;3.58;2.30;;;;;;;20.48;35.33;102198.09;5101754;28;20104;-72
2023/04/20 10:07:41;;;;;;;4.30;2.22;;;;;;;20.57;35.16;102221.00;5108715;28;20043;-72
2023/04/20 10:10:09;;;;;;;4.07;1.92;;;;;;;20.57;35.21;102212.22;5103394;28;20102;-72
2023/04/20 10:12:52;;;;;;;2.72;1.77;;;;;;;20.59;35.14;102211.09;5111497;28;20035;-72
2023/04/20 10:15:20;;;;;;;1.92;1.73;;;;;;;20.80;34.72;102205.47;5108981;28;20031;-72
2023/04/20 10:17:46;;;;;;;2.30;1.80;;;;;;;20.76;34.74;102212.88;5110266;28;20036;-72
2023/04/20 10:20:28;;;;;;;2.85;1.90;;;;;;;20.95;34.49;102213.72;5107855;28;20066;-72
2023/04/20 10:23:07;;;;;;;2.85;1.80;;;;;;;20.87;34.65;102213.66;5104727;28;20051;-72
2023/04/20 10:25:32;;;;;;;2.20;1.80;;;;;;;20.88;34.80;102218.78;5107674;28;20036;-72
2023/04/20 10:28:03;;;;;;;2.30;1.77;;;;;;;20.67;34.97;102221.75;5098186;28;20027;-72
2023/04/20 10:30:30;;;;;;;3.88;2.20;;;;;;;20.63;35.15;102222.19;5111369;28;20036;-72
2023/04/20 10:33:06;;;;;;;2.38;2.00;;;;;;;20.65;35.11;102217.59;5103066;28;20047;-73
2023/04/20 10:35:42;;;;;;;2.20;1.77;;;;;;;20.63;35.03;102216.91;5106233;28;20043;-74
2023/04/20 10:38:09;;;;;;;2.65;1.90;;;;;;;20.62;35.29;102226.66;5108168;28;20028;-72
2023/04/20 10:40:35;;;;;;;2.88;2.05;;;;;;;20.58;35.36;102229.75;5112291;28;20043;-72
2023/04/20 10:43:00;;;;;;;2.45;2.10;;;;;;;20.63;35.25;102223.03;5104026;28;20051;-71
2023/04/20 10:45:40;;;;;;;2.30;1.65;;;;;;;20.55;35.44;102211.53;5101609;28;20054;-73
2023/04/20 10:48:09;;;;;;;1.88;1.60;;;;;;;20.58;35.37;102213.88;5111534;28;20039;-72
2023/04/20 10:50:35;;;;;;;3.27;1.90;;;;;;;20.46;35.46;102216.75;5104057;28;20100;-74
2023/04/20 10:53:01;;;;;;;2.05;1.70;;;;;;;20.44;35.25;102215.22;5108009;28;20064;-75
2023/04/20 10:55:27;;;;;;;2.47;1.98;;;;;;;20.41;35.32;102207.59;5104723;28;20036;-74
2023/04/20 10:57:52;;;;;;;3.17;1.95;;;;;;;20.54;35.41;102215.16;5114074;28;20043;-75
2023/04/20 11:00:22;;;;;;;2.10;1.90;;;;;;;20.46;35.38;102221.19;5112129;28;20488;-74
2023/04/20 11:02:49;;;;;;;;;;;;;;;20.53;35.19;102214.34;5103566;28;20036;-73
2023/04/20 11:05:16;;;;;;;5.03;2.15;;;;;;;20.47;35.25;102215.78;5103081;27;19912;-73
2023/04/20 11:07:56;;;;;;;3.30;1.83;;;;;;;20.52;35.05;102191.50;5115060;27;20069;-73
2023/04/20 11:10:23;;;;;;;3.45;2.08;;;;;;;20.55;35.36;102191.19;5107341;27;20059;-73
2023/04/20 11:12:49;;;;;;;3.40;1.90;;;;;;;20.59;35.39;102202.31;5109975;28;20862;-73
2023/04/20 11:15:15;;;;;;;2.40;2.15;;;;;;;20.52;35.28;102202.94;5114996;27;20481;-74
2023/04/20 11:17:41;;;;;;;2.85;1.85;;;;;;;20.54;35.32;102207.22;5108206;28;20042;-74
2023/04/20 11:20:10;;;;;;;2.80;1.98;;;;;;;20.54;35.12;102201.94;5111295;28;20043;-74
2023/04/20 11:22:38;;;;;;;;;;;;;;;20.51;35.38;102217.16;5092893;28;20071;-75
2023/04/20 11:25:08;;;;;;;4.63;2.40;;;;;;;21.05;34.37;102196.75;5105753;28;19923;-77
2023/04/20 11:27:35;;;;;;;2.92;1.92;;;;;;;21.46;33.64;102191.72;5107209;27;20039;-77